Portada
METAR-TAF:

METAR-TAF

Aeropuertos :

Aeropuerto Internacional de Chongqing-Jiangbei

Chongqing, China

latitud: 29-31N, longitud: 106-29E, altitud: 351 m

Observación

El informe se hizo hace 7 horas y 15 minutos, a las 05:00 UTC
Viento 4 kt con dirección variable
Temperatura 34°C
Humedad 53%
Presión 1002 hPa
Visibilidad 10 km o más
sin nubes por debajo de 1500 m y sin presencia de cumulonimbus.

METAR: ZUCK 210500Z VRB02MPS CAVOK 34/23 Q1002 NOSIG

Hora: 20:15 (12:15 UTC)

Pronóstico

El informe se hizo hace 9 horas y 8 minutos, a las 03:07 UTC
Pronóstico válido del 21 a las 06 UTC al 22 a las 06 UTC
Viento 6 kt del noreste
Visibilidad: 6000 m
Nubes dispersas a una altura de 4000 ft
Temporalmente
del 21 a las 20 UTC al 22 a las 02 UTC
Escasas nubes a una altura de 3000 ft, Cumulonimbus.
Nubes dispersas a una altura de 4000 ft
tormenta, lluvia

TAF: ZUCK 210307Z 2106/2206 05003MPS 6000 SCT040 TX38/2108Z TN26/2121Z TEMPO 2120/2202 TSRA FEW030CB SCT040

Observaciones y pronósticos meteorológicos de más de 4000 aeropuertos (mensajes METAR y TAF).

Los puntos amarillos y rojos representan las estaciones disponibles.

Ponga el ratón en el punto deseado para ver el nombre de la estación.

Haga clic para ver las observaciones y los pronósticos meteorológicos.

Para cambiar el mapa : haga clic en los botones verdes con una cruz de color negro para hacer un zoom, en el botón verde con un guión para alejar o en las flechas verdes para mapas adyacentes.


METAR-TAF: